createdAt,value
2023-05-20T00:01:19.681Z,1.57
2023-05-20T00:03:47.823Z,1.30
2023-05-20T00:06:15.900Z,1.30
2023-05-20T00:08:43.992Z,1.50
2023-05-20T00:11:12.187Z,1.40
2023-05-20T00:13:40.533Z,1.20
2023-05-20T00:16:08.670Z,1.30
2023-05-20T00:18:38.097Z,1.43
2023-05-20T00:21:05.851Z,1.40
2023-05-20T00:23:33.528Z,1.40
2023-05-20T00:26:01.422Z,1.53
2023-05-20T00:28:30.615Z,1.43
2023-05-20T00:30:58.441Z,1.50
2023-05-20T00:33:26.427Z,1.40
2023-05-20T00:35:55.893Z,1.47
2023-05-20T00:38:23.905Z,1.60
2023-05-20T00:40:51.711Z,1.30
2023-05-20T00:43:20.691Z,1.80
2023-05-20T00:45:49.080Z,1.50
2023-05-20T00:48:17.351Z,1.20
2023-05-20T00:50:45.351Z,1.37
2023-05-20T00:53:17.182Z,1.30
2023-05-20T00:55:45.742Z,1.20
2023-05-20T00:58:13.603Z,1.30
2023-05-20T01:00:41.693Z,1.40
2023-05-20T01:03:10.072Z,1.30
2023-05-20T01:05:39.840Z,1.40
2023-05-20T01:08:09.523Z,1.40
2023-05-20T01:10:43.374Z,1.40
2023-05-20T01:13:16.676Z,1.40
2023-05-20T01:15:48.218Z,1.60
2023-05-20T01:18:20.779Z,1.50
2023-05-20T01:20:52.115Z,1.43
2023-05-20T01:23:22.080Z,1.60
2023-05-20T01:25:49.870Z,1.60
2023-05-20T01:28:18.141Z,1.50
2023-05-20T01:30:52.447Z,1.30
2023-05-20T01:33:22.230Z,1.50
2023-05-20T01:35:50.494Z,1.40
2023-05-20T01:38:20.614Z,1.50
2023-05-20T01:40:55.135Z,1.73
2023-05-20T01:43:23.676Z,1.43
2023-05-20T01:45:52.132Z,1.60
2023-05-20T01:48:19.799Z,1.60
2023-05-20T01:50:48.149Z,1.50
2023-05-20T01:53:16.092Z,1.60
2023-05-20T01:55:44.101Z,1.60
2023-05-20T01:58:13.271Z,1.60
2023-05-20T02:00:41.256Z,1.60
2023-05-20T02:03:09.565Z,2.40
2023-05-20T02:05:38.476Z,1.57
2023-05-20T02:08:06.865Z,2.03
2023-05-20T02:10:34.610Z,1.53
2023-05-20T02:13:02.607Z,1.70
2023-05-20T02:15:32.038Z,1.70
2023-05-20T02:18:00.192Z,1.67
2023-05-20T02:20:28.089Z,1.80
2023-05-20T02:22:56.142Z,1.73
2023-05-20T02:25:23.983Z,1.60
2023-05-20T02:27:51.715Z,1.53
2023-05-20T02:30:19.897Z,1.70
2023-05-20T02:32:49.573Z,1.67
2023-05-20T02:35:18.486Z,1.60
2023-05-20T02:37:48.390Z,1.80
2023-05-20T02:40:16.288Z,1.80
2023-05-20T02:42:44.089Z,1.60
2023-05-20T02:45:12.429Z,1.80
2023-05-20T02:47:41.299Z,2.00
2023-05-20T02:50:11.439Z,1.80
2023-05-20T02:52:39.975Z,2.00
2023-05-20T02:55:08.754Z,1.73
2023-05-20T02:57:38.320Z,1.80
2023-05-20T03:00:09.027Z,1.90
2023-05-20T03:02:36.810Z,1.90
2023-05-20T03:05:05.302Z,1.90
2023-05-20T03:07:36.490Z,2.00
2023-05-20T03:10:04.980Z,1.90
2023-05-20T03:12:33.252Z,1.83
2023-05-20T03:15:01.635Z,1.97
2023-05-20T03:17:29.650Z,1.60
2023-05-20T03:19:57.641Z,2.00
2023-05-20T03:22:26.126Z,1.80
2023-05-20T03:24:55.603Z,1.63
2023-05-20T03:27:23.537Z,1.80
2023-05-20T03:29:51.368Z,1.80
2023-05-20T03:32:19.251Z,2.00
2023-05-20T03:34:47.038Z,1.90
2023-05-20T03:37:15.085Z,2.00
2023-05-20T03:39:43.150Z,1.73
2023-05-20T03:42:12.464Z,1.90
2023-05-20T03:44:40.457Z,2.07
2023-05-20T03:47:09.153Z,1.93
2023-05-20T03:49:36.935Z,1.83
2023-05-20T03:52:05.178Z,1.97
2023-05-20T03:54:33.099Z,1.80
2023-05-20T03:57:03.044Z,2.27
2023-05-20T03:59:32.696Z,1.60
2023-05-20T04:02:00.817Z,1.90
2023-05-20T04:04:28.852Z,1.90
2023-05-20T04:06:57.370Z,1.90
2023-05-20T04:09:25.124Z,1.67
2023-05-20T04:11:53.118Z,1.80
2023-05-20T04:14:20.976Z,1.70
2023-05-20T04:16:50.439Z,1.97
2023-05-20T04:19:19.705Z,2.00
2023-05-20T04:21:47.616Z,1.90
2023-05-20T04:24:15.694Z,1.60
2023-05-20T04:26:43.568Z,2.10
2023-05-20T04:29:11.960Z,2.00
2023-05-20T04:31:41.123Z,2.00
2023-05-20T04:34:10.814Z,1.70
2023-05-20T04:36:38.505Z,1.80
2023-05-20T04:39:06.916Z,2.00
2023-05-20T04:41:35.435Z,2.10
2023-05-20T04:44:04.102Z,2.13
2023-05-20T04:46:32.502Z,2.10
2023-05-20T04:49:00.420Z,1.80
2023-05-20T04:51:30.538Z,1.80
2023-05-20T04:53:59.024Z,1.87
2023-05-20T04:56:27.255Z,1.97
2023-05-20T04:58:56.460Z,1.87
2023-05-20T05:01:24.528Z,1.77
2023-05-20T05:03:52.263Z,2.03
2023-05-20T05:06:20.862Z,2.00
2023-05-20T05:08:50.198Z,1.80
2023-05-20T05:11:17.928Z,1.63
2023-05-20T05:13:45.666Z,2.00
2023-05-20T05:16:13.632Z,2.10
2023-05-20T05:18:45.528Z,1.80
2023-05-20T05:21:13.611Z,2.00
2023-05-20T05:23:42.569Z,1.80
2023-05-20T05:26:11.835Z,2.20
2023-05-20T05:28:39.639Z,2.10
2023-05-20T05:31:08.496Z,2.00
2023-05-20T05:33:36.924Z,2.03
2023-05-20T05:36:06.519Z,2.30
2023-05-20T05:38:34.329Z,1.97
2023-05-20T05:41:02.321Z,2.20
2023-05-20T05:43:31.803Z,2.20
2023-05-20T05:45:59.613Z,1.93
2023-05-20T05:48:27.388Z,1.90
2023-05-20T05:50:55.295Z,2.10
2023-05-20T05:53:23.396Z,2.10
2023-05-20T05:55:51.336Z,2.20
2023-05-20T05:58:19.127Z,1.97
2023-05-20T06:00:48.586Z,1.80
2023-05-20T06:03:16.572Z,1.93
2023-05-20T06:05:47.288Z,1.90
2023-05-20T06:08:15.402Z,2.10
2023-05-20T06:10:43.823Z,1.73
2023-05-20T06:13:11.637Z,1.97
2023-05-20T06:15:41.411Z,2.00
2023-05-20T06:18:10.918Z,1.93
2023-05-20T06:20:39.001Z,2.00
2023-05-20T06:23:07.229Z,1.77
2023-05-20T06:25:35.252Z,1.70
2023-05-20T06:28:03.204Z,2.00
2023-05-20T06:30:31.042Z,1.87
2023-05-20T06:32:59.213Z,1.90
2023-05-20T06:35:28.588Z,2.10
2023-05-20T06:37:57.246Z,2.00
2023-05-20T06:40:25.306Z,2.00
2023-05-20T06:42:54.551Z,2.10
2023-05-20T06:45:22.812Z,2.00
2023-05-20T06:47:50.871Z,2.17
2023-05-20T06:50:18.858Z,1.83
2023-05-20T06:52:48.381Z,2.23
2023-05-20T06:55:16.323Z,2.00
2023-05-20T06:57:45.297Z,1.90
2023-05-20T07:00:14.992Z,2.00
2023-05-20T07:02:43.692Z,2.00
2023-05-20T07:05:11.919Z,2.03
2023-05-20T07:07:39.689Z,2.10
2023-05-20T07:10:10.487Z,2.20
2023-05-20T07:12:38.840Z,2.37
2023-05-20T07:15:07.726Z,2.43
2023-05-20T07:17:35.728Z,2.47
2023-05-20T07:20:04.468Z,2.70
2023-05-20T07:22:32.368Z,2.97
2023-05-20T07:25:01.388Z,3.67
2023-05-20T07:27:30.708Z,3.73
2023-05-20T07:29:58.474Z,3.53
2023-05-20T07:32:26.404Z,3.03
2023-05-20T07:34:54.776Z,3.73
2023-05-20T07:37:23.180Z,3.57
2023-05-20T07:39:51.163Z,3.60
2023-05-20T07:42:18.936Z,3.20
2023-05-20T07:44:48.433Z,3.87
2023-05-20T07:47:19.043Z,3.60
2023-05-20T07:49:47.030Z,3.70
2023-05-20T07:52:15.098Z,3.73
2023-05-20T07:54:43.008Z,4.00
2023-05-20T07:57:10.802Z,3.70
2023-05-20T07:59:38.946Z,3.87
2023-05-20T08:02:08.276Z,3.60
2023-05-20T08:04:37.005Z,3.57
2023-05-20T08:07:05.758Z,3.77
2023-05-20T08:09:35.809Z,3.00
2023-05-20T08:12:03.702Z,3.50
2023-05-20T08:14:31.702Z,3.17
2023-05-20T08:16:59.940Z,3.27
2023-05-20T08:19:30.108Z,3.17
2023-05-20T08:21:58.164Z,3.07
2023-05-20T08:24:26.036Z,3.37
2023-05-20T08:26:55.773Z,3.00
2023-05-20T08:29:24.235Z,3.17
2023-05-20T08:31:52.676Z,3.00
2023-05-20T08:34:21.170Z,3.40
2023-05-20T08:36:51.403Z,3.23
2023-05-20T08:39:19.256Z,3.20
2023-05-20T08:41:48.846Z,3.30
2023-05-20T08:44:19.266Z,3.10
2023-05-20T08:46:47.793Z,3.27
2023-05-20T08:49:15.651Z,2.97
2023-05-20T08:51:44.076Z,3.00
2023-05-20T08:54:14.800Z,3.20
2023-05-20T08:56:43.335Z,3.20
2023-05-20T08:59:11.501Z,2.80
2023-05-20T09:01:44.373Z,2.83
2023-05-20T09:04:12.685Z,3.00
2023-05-20T09:06:47.130Z,2.90
2023-05-20T09:09:17.223Z,2.50
2023-05-20T09:11:45.088Z,2.60
2023-05-20T09:14:13.286Z,2.57
2023-05-20T09:16:41.525Z,2.63
2023-05-20T09:19:09.945Z,2.40
2023-05-20T09:21:39.103Z,2.90
2023-05-20T09:24:08.061Z,2.40
2023-05-20T09:26:38.049Z,2.53
2023-05-20T09:29:06.228Z,2.67
2023-05-20T09:31:35.665Z,2.63
2023-05-20T09:34:04.756Z,2.50
2023-05-20T09:36:36.144Z,2.50
2023-05-20T09:39:05.409Z,2.50
2023-05-20T09:41:37.922Z,2.60
2023-05-20T09:44:10.910Z,2.20
2023-05-20T09:46:42.608Z,2.30
2023-05-20T09:49:11.813Z,2.33
2023-05-20T09:51:40.988Z,2.10
2023-05-20T09:54:11.265Z,2.00
2023-05-20T09:56:40.371Z,2.10
2023-05-20T09:59:11.120Z,2.30
2023-05-20T10:01:39.270Z,2.10
2023-05-20T10:04:09.800Z,2.20
2023-05-20T10:06:56.023Z,2.10
2023-05-20T10:09:37.219Z,2.10
2023-05-20T10:12:21.263Z,2.00
2023-05-20T10:14:58.638Z,2.00
2023-05-20T10:17:33.421Z,2.20
2023-05-20T10:20:04.552Z,2.50
2023-05-20T10:22:34.086Z,2.10
2023-05-20T10:25:06.838Z,2.10
2023-05-20T10:27:44.324Z,1.90
2023-05-20T10:30:19.317Z,2.50
2023-05-20T10:32:53.645Z,2.43
2023-05-20T10:35:27.280Z,2.33
2023-05-20T10:37:56.330Z,2.70
2023-05-20T10:40:24.484Z,2.53
2023-05-20T10:42:52.320Z,2.30
2023-05-20T10:45:29.338Z,2.40
2023-05-20T10:47:59.113Z,2.17
2023-05-20T10:50:29.302Z,2.50
2023-05-20T10:53:04.796Z,2.60
2023-05-20T10:55:37.627Z,2.13
2023-05-20T10:58:06.161Z,2.33
2023-05-20T11:00:38.621Z,2.10
2023-05-20T11:03:08.201Z,2.30
2023-05-20T11:05:37.216Z,2.53
2023-05-20T11:08:16.915Z,2.50
2023-05-20T11:10:52.736Z,2.00
2023-05-20T11:13:20.804Z,2.10
2023-05-20T11:15:50.428Z,2.33
2023-05-20T11:18:19.077Z,2.23
2023-05-20T11:20:48.956Z,2.50
2023-05-20T11:23:16.791Z,2.70
2023-05-20T11:25:44.641Z,2.77
2023-05-20T11:28:16.988Z,3.00
2023-05-20T11:30:45.567Z,2.57
2023-05-20T11:33:16.874Z,3.40
2023-05-20T11:35:47.134Z,2.87
2023-05-20T11:38:15.877Z,2.60
2023-05-20T11:40:50.886Z,2.37
2023-05-20T11:43:20.299Z,2.70
2023-05-20T11:45:49.867Z,2.73
2023-05-20T11:48:20.509Z,2.70
2023-05-20T11:50:49.545Z,2.97
2023-05-20T11:53:18.983Z,2.70
2023-05-20T11:55:47.890Z,2.93
2023-05-20T11:58:20.557Z,2.70
2023-05-20T12:00:53.289Z,3.00
2023-05-20T12:03:28.865Z,2.47
2023-05-20T12:05:56.732Z,2.93
2023-05-20T12:08:24.560Z,2.90
2023-05-20T12:10:52.567Z,2.60
2023-05-20T12:13:20.324Z,3.20
2023-05-20T12:15:48.131Z,3.03
2023-05-20T12:18:15.876Z,2.58
2023-05-20T12:20:45.397Z,2.55
2023-05-20T12:23:13.426Z,2.80
2023-05-20T12:25:41.117Z,3.00
2023-05-20T12:28:09.576Z,2.47
2023-05-20T12:30:37.742Z,2.50
2023-05-20T12:33:06.601Z,2.70
2023-05-20T12:35:39.324Z,2.90
2023-05-20T12:38:09.083Z,2.60
2023-05-20T12:40:38.395Z,2.65
2023-05-20T12:43:06.927Z,2.50
2023-05-20T12:45:35.131Z,2.60
2023-05-20T12:48:03.412Z,2.42
2023-05-20T12:50:31.579Z,2.30
2023-05-20T12:52:59.650Z,2.37
2023-05-20T12:55:29.336Z,2.30
2023-05-20T12:57:57.201Z,2.60
2023-05-20T13:00:25.008Z,2.80
2023-05-20T13:02:53.485Z,2.60
2023-05-20T13:05:21.633Z,2.43
2023-05-20T13:07:50.063Z,2.58
2023-05-20T13:10:18.692Z,2.80
2023-05-20T13:12:47.989Z,2.03
2023-05-20T13:15:16.224Z,2.20
2023-05-20T13:17:44.822Z,2.10
2023-05-20T13:20:13.742Z,2.10
2023-05-20T13:22:41.947Z,2.17
2023-05-20T13:25:10.860Z,2.20
2023-05-20T13:27:39.163Z,2.10
2023-05-20T13:30:09.901Z,2.40
2023-05-20T13:32:39.268Z,2.30
2023-05-20T13:35:08.196Z,1.90
2023-05-20T13:37:35.991Z,2.10
2023-05-20T13:40:04.175Z,2.17
2023-05-20T13:42:31.968Z,1.98
2023-05-20T13:44:59.848Z,2.20
2023-05-20T13:47:31.086Z,2.00
2023-05-20T13:50:00.693Z,2.10
2023-05-20T13:52:30.566Z,2.38
2023-05-20T13:54:58.944Z,2.30
2023-05-20T13:57:26.670Z,2.10
2023-05-20T13:59:54.616Z,2.00
2023-05-20T14:02:22.353Z,2.05
2023-05-20T14:04:51.853Z,1.92
2023-05-20T14:07:19.926Z,2.20
2023-05-20T14:09:48.392Z,2.22
2023-05-20T14:12:16.388Z,2.47
2023-05-20T14:14:44.164Z,2.70
2023-05-20T14:17:11.996Z,2.15
2023-05-20T14:19:39.913Z,2.22
2023-05-20T14:22:09.087Z,2.20
2023-05-20T14:24:36.909Z,2.10
2023-05-20T14:27:04.761Z,2.28
2023-05-20T14:29:32.580Z,2.15
2023-05-20T14:32:01.508Z,2.30
2023-05-20T14:34:29.369Z,2.20
2023-05-20T14:36:57.269Z,2.70
2023-05-20T14:39:26.796Z,2.25
2023-05-20T14:41:54.789Z,2.13
2023-05-20T14:44:22.750Z,2.43
2023-05-20T14:46:50.738Z,2.37
2023-05-20T14:49:19.399Z,2.47
2023-05-20T14:51:47.267Z,2.30
2023-05-20T14:54:16.165Z,2.40
2023-05-20T14:56:46.665Z,2.10
2023-05-20T14:59:15.889Z,2.50
2023-05-20T15:01:43.846Z,2.30
2023-05-20T15:04:11.655Z,2.40
2023-05-20T15:06:39.661Z,2.30
2023-05-20T15:09:07.678Z,2.70
2023-05-20T15:11:35.648Z,3.00
2023-05-20T15:14:05.095Z,2.87
2023-05-20T15:16:32.937Z,2.90
2023-05-20T15:19:01.066Z,3.10
2023-05-20T15:21:28.852Z,3.30
2023-05-20T15:23:56.633Z,3.00
2023-05-20T15:26:26.319Z,2.90
2023-05-20T15:28:54.391Z,3.10
2023-05-20T15:31:24.639Z,3.90
2023-05-20T15:33:52.411Z,3.30
2023-05-20T15:36:20.366Z,3.40
2023-05-20T15:38:48.495Z,3.57
2023-05-20T15:41:16.739Z,3.80
2023-05-20T15:43:44.738Z,3.63
2023-05-20T15:46:12.708Z,3.60
2023-05-20T15:48:41.990Z,3.93
2023-05-20T15:51:10.407Z,4.17
2023-05-20T15:53:40.649Z,3.73
2023-05-20T15:56:10.088Z,3.70
2023-05-20T15:58:37.910Z,3.60
2023-05-20T16:01:06.856Z,3.83
2023-05-20T16:03:35.061Z,3.63
2023-05-20T16:06:04.378Z,4.13
2023-05-20T16:08:34.503Z,3.70
2023-05-20T16:11:02.252Z,3.93
2023-05-20T16:13:30.214Z,3.50
2023-05-20T16:15:59.291Z,3.90
2023-05-20T16:18:28.626Z,3.70
2023-05-20T16:20:57.123Z,3.60
2023-05-20T16:23:26.651Z,3.70
2023-05-20T16:25:54.373Z,3.60
2023-05-20T16:28:22.556Z,3.90
2023-05-20T16:30:50.623Z,4.00
2023-05-20T16:33:19.035Z,4.20
2023-05-20T16:35:47.184Z,3.87
2023-05-20T16:38:16.627Z,4.07
2023-05-20T16:40:45.975Z,4.07
2023-05-20T16:43:13.994Z,4.30
2023-05-20T16:45:42.100Z,3.97
2023-05-20T16:48:09.881Z,4.20
2023-05-20T16:50:37.768Z,3.80
2023-05-20T16:53:05.822Z,3.40
2023-05-20T16:55:34.356Z,4.07
2023-05-20T16:58:03.861Z,3.53
2023-05-20T17:00:32.078Z,4.30
2023-05-20T17:03:00.189Z,4.40
2023-05-20T17:05:28.209Z,4.53
2023-05-20T17:07:59.875Z,4.73
2023-05-20T17:10:28.625Z,4.30
2023-05-20T17:12:56.509Z,4.70
2023-05-20T17:15:26.014Z,5.17
2023-05-20T17:17:53.835Z,4.30
2023-05-20T17:20:21.749Z,4.10
2023-05-20T17:22:49.861Z,4.90
2023-05-20T17:25:18.140Z,4.60
2023-05-20T17:27:46.488Z,4.77
2023-05-20T17:30:14.494Z,4.50
2023-05-20T17:32:43.999Z,4.93
2023-05-20T17:35:11.967Z,5.17
2023-05-20T17:37:40.569Z,4.97
2023-05-20T17:40:09.731Z,4.50
2023-05-20T17:42:38.147Z,3.90
2023-05-20T17:45:07.832Z,4.40
2023-05-20T17:47:35.782Z,4.50
2023-05-20T17:50:06.042Z,4.47
2023-05-20T17:52:34.764Z,4.60
2023-05-20T17:55:02.769Z,4.43
2023-05-20T17:57:30.597Z,4.40
2023-05-20T17:59:58.770Z,4.40
2023-05-20T18:02:26.864Z,4.40
2023-05-20T18:04:55.104Z,4.57
2023-05-20T18:07:27.349Z,4.60
2023-05-20T18:09:58.662Z,5.00
2023-05-20T18:12:28.243Z,4.50
2023-05-20T18:14:56.977Z,4.33
2023-05-20T18:17:25.240Z,4.93
2023-05-20T18:19:52.988Z,4.50
2023-05-20T18:22:21.061Z,4.60
2023-05-20T18:24:50.339Z,4.90
2023-05-20T18:27:18.656Z,4.50
2023-05-20T18:29:46.513Z,4.37
2023-05-20T18:32:15.558Z,4.53
2023-05-20T18:34:43.549Z,4.83
2023-05-20T18:37:11.808Z,4.70
2023-05-20T18:39:39.884Z,4.80
2023-05-20T18:42:11.317Z,4.57
2023-05-20T18:44:42.018Z,4.70
2023-05-20T18:47:11.070Z,4.03
2023-05-20T18:49:39.094Z,4.60
2023-05-20T18:52:07.843Z,4.50
2023-05-20T18:54:35.877Z,4.70
2023-05-20T18:57:05.099Z,4.37
2023-05-20T18:59:35.065Z,4.33
2023-05-20T19:02:02.886Z,4.30
2023-05-20T19:04:32.135Z,4.20
2023-05-20T19:07:00.952Z,4.50
2023-05-20T19:09:28.733Z,4.37
2023-05-20T19:11:59.354Z,4.07
2023-05-20T19:14:27.207Z,4.50
2023-05-20T19:16:58.853Z,4.43
2023-05-20T19:19:27.155Z,3.90
2023-05-20T19:21:55.194Z,3.97
2023-05-20T19:24:23.755Z,4.20
2023-05-20T19:26:52.532Z,4.77
2023-05-20T19:29:21.369Z,4.30
2023-05-20T19:31:49.632Z,4.13
2023-05-20T19:34:19.037Z,3.83
2023-05-20T19:36:47.032Z,3.87
2023-05-20T19:39:16.146Z,3.40
2023-05-20T19:41:44.463Z,3.53
2023-05-20T19:44:12.395Z,4.17
2023-05-20T19:46:40.790Z,3.53
2023-05-20T19:49:11.698Z,3.87
2023-05-20T19:51:41.573Z,3.77
2023-05-20T19:54:11.125Z,3.90
2023-05-20T19:56:39.642Z,3.57
2023-05-20T19:59:07.697Z,3.80
2023-05-20T20:01:40.238Z,3.77
2023-05-20T20:04:08.456Z,3.77
2023-05-20T20:06:36.372Z,3.57
2023-05-20T20:09:06.021Z,4.37
2023-05-20T20:11:34.768Z,3.50
2023-05-20T20:14:03.377Z,3.70
2023-05-20T20:16:32.573Z,4.03
2023-05-20T20:19:01.493Z,3.47
2023-05-20T20:21:29.848Z,3.83
2023-05-20T20:23:57.884Z,3.80
2023-05-20T20:26:27.573Z,3.90
2023-05-20T20:28:55.987Z,3.50
2023-05-20T20:31:23.758Z,3.97
2023-05-20T20:33:52.501Z,3.70
2023-05-20T20:36:20.689Z,3.60
2023-05-20T20:38:50.223Z,3.70
2023-05-20T20:41:18.225Z,3.53
2023-05-20T20:43:47.840Z,3.30
2023-05-20T20:46:16.464Z,3.13
2023-05-20T20:48:46.015Z,3.57
2023-05-20T20:51:14.467Z,3.67
2023-05-20T20:53:43.194Z,3.23
2023-05-20T20:56:11.570Z,3.93
2023-05-20T20:58:40.308Z,3.17
2023-05-20T21:01:11.736Z,3.30
2023-05-20T21:03:40.650Z,3.10
2023-05-20T21:06:09.521Z,3.27
2023-05-20T21:08:37.671Z,3.13
2023-05-20T21:11:05.938Z,3.20
2023-05-20T21:13:34.035Z,2.97
2023-05-20T21:16:01.886Z,3.37
2023-05-20T21:18:31.848Z,3.40
2023-05-20T21:20:59.781Z,3.37
2023-05-20T21:23:27.952Z,3.00
2023-05-20T21:25:56.542Z,3.33
2023-05-20T21:28:24.493Z,2.80
2023-05-20T21:30:52.780Z,3.10
2023-05-20T21:33:20.935Z,3.03
2023-05-20T21:35:50.394Z,3.60
2023-05-20T21:38:18.322Z,3.00
2023-05-20T21:40:46.450Z,2.70
2023-05-20T21:43:14.784Z,2.70
2023-05-20T21:45:42.852Z,2.73
2023-05-20T21:48:11.226Z,3.03
2023-05-20T21:50:40.942Z,3.00
2023-05-20T21:53:10.562Z,3.00
2023-05-20T21:55:38.718Z,3.00
2023-05-20T21:58:07.038Z,2.93
2023-05-20T22:00:35.421Z,3.00
2023-05-20T22:03:03.670Z,3.07
2023-05-20T22:05:34.706Z,2.80
2023-05-20T22:08:04.131Z,3.27
2023-05-20T22:10:34.459Z,2.80
2023-05-20T22:13:03.201Z,3.07
2023-05-20T22:15:31.422Z,3.10
2023-05-20T22:17:59.575Z,2.70
2023-05-20T22:20:28.761Z,2.80
2023-05-20T22:22:57.032Z,2.80
2023-05-20T22:25:24.854Z,3.07
2023-05-20T22:27:54.098Z,2.93
2023-05-20T22:30:22.003Z,2.70
2023-05-20T22:32:49.819Z,2.97
2023-05-20T22:35:17.727Z,3.10
2023-05-20T22:37:45.643Z,3.10
2023-05-20T22:40:14.558Z,3.10
2023-05-20T22:42:42.475Z,3.10
2023-05-20T22:45:12.397Z,2.97
2023-05-20T22:47:40.550Z,3.17
2023-05-20T22:50:10.009Z,3.63
2023-05-20T22:52:37.864Z,3.37
2023-05-20T22:55:06.275Z,3.73
2023-05-20T22:57:34.496Z,2.83
2023-05-20T23:00:03.704Z,3.07
2023-05-20T23:02:32.863Z,3.60
2023-05-20T23:05:00.738Z,3.10
2023-05-20T23:07:29.548Z,2.93
2023-05-20T23:09:57.309Z,3.37
2023-05-20T23:12:25.321Z,3.37
2023-05-20T23:14:53.195Z,3.33
2023-05-20T23:17:21.127Z,2.83
2023-05-20T23:19:50.658Z,3.53
2023-05-20T23:22:18.506Z,2.87
2023-05-20T23:24:46.545Z,2.97
2023-05-20T23:27:14.348Z,3.50
2023-05-20T23:29:42.230Z,3.17
2023-05-20T23:32:10.221Z,3.00
2023-05-20T23:34:37.936Z,2.93
2023-05-20T23:37:07.531Z,2.93
2023-05-20T23:39:35.400Z,3.10
2023-05-20T23:42:03.308Z,2.90
2023-05-20T23:44:31.301Z,2.80
2023-05-20T23:46:59.009Z,2.83
2023-05-20T23:49:27.286Z,3.50
2023-05-20T23:51:55.081Z,3.37
2023-05-20T23:54:24.358Z,3.07
2023-05-20T23:56:56.403Z,3.50
2023-05-20T23:59:24.270Z,3.37
